Time;durP1;ratioP1;P1;durP2;ratioP2;P2;SDS_P1;SDS_P2;PMS_P1;PMS_P2;Temp;Humidity;BMP_temperature;BMP_pressure;BME280_temperature;BME280_humidity;BME280_pressure;Samples;Min_cycle;Max_cycle;Signal;HPM_P1;HPM_P2
2022/10/10 00:00:36;;;;;;;0.00;0.00;;;;;;;9.68;100.00;98733.78;4909963;29;20224;-62
2022/10/10 00:03:08;;;;;;;0.00;0.00;;;;;;;9.79;100.00;98728.38;4917555;29;20246;-62
2022/10/10 00:05:36;;;;;;;0.00;0.00;;;;;;;9.76;100.00;98728.66;4915452;29;20791;-62
2022/10/10 00:08:02;;;;;;;0.00;0.00;;;;;;;9.76;100.00;98728.66;4918483;29;20254;-62
2022/10/10 00:10:29;;;;;;;0.00;0.00;;;;;;;9.77;100.00;98740.75;4919553;29;20292;-62
2022/10/10 00:12:57;;;;;;;0.00;0.00;;;;;;;9.83;100.00;98728.94;4914435;29;20298;-62
2022/10/10 00:15:26;;;;;;;0.00;0.00;;;;;;;9.80;100.00;98735.25;4905847;29;20242;-62
2022/10/10 00:17:52;;;;;;;0.00;0.00;;;;;;;9.87;100.00;98728.50;4909873;29;20659;-62
2022/10/10 00:20:20;;;;;;;0.00;0.00;;;;;;;9.85;100.00;98732.22;4913678;29;20250;-62
2022/10/10 00:22:47;;;;;;;0.00;0.00;;;;;;;9.86;100.00;98726.84;4918331;29;20238;-62
2022/10/10 00:25:14;;;;;;;0.00;0.00;;;;;;;9.88;100.00;98729.31;4895017;29;20259;-62
2022/10/10 00:27:41;;;;;;;0.00;0.00;;;;;;;9.92;100.00;98724.63;4909098;29;20678;-62
2022/10/10 00:30:10;;;;;;;0.00;0.00;;;;;;;9.94;100.00;98728.75;4901293;29;20235;-62
2022/10/10 00:32:37;;;;;;;0.00;0.00;;;;;;;9.97;100.00;98715.44;4903196;29;20236;-62
2022/10/10 00:35:04;;;;;;;0.00;0.00;;;;;;;10.00;100.00;98716.91;4911960;29;20251;-62
2022/10/10 00:37:32;;;;;;;0.00;0.00;;;;;;;10.01;100.00;98716.78;4915189;29;20235;-62
2022/10/10 00:39:59;;;;;;;0.00;0.00;;;;;;;10.04;100.00;98715.66;4911540;29;20568;-62
2022/10/10 00:42:25;;;;;;;0.00;0.00;;;;;;;10.02;100.00;98713.22;4895156;29;20230;-62
2022/10/10 00:45:26;;;;;;;0.00;0.00;;;;;;;10.02;100.00;98715.81;4881167;29;20244;-62
2022/10/10 00:47:58;;;;;;;0.00;0.00;;;;;;;10.06;100.00;98716.34;4910850;29;20237;-62
2022/10/10 00:50:26;;;;;;;0.00;0.00;;;;;;;10.06;100.00;98707.72;4910471;29;20237;-62
2022/10/10 00:52:53;;;;;;;0.00;0.00;;;;;;;10.00;100.00;98712.53;4915812;29;20281;-62
2022/10/10 00:55:20;;;;;;;0.00;0.00;;;;;;;10.07;100.00;98712.75;4910439;29;20238;-62
2022/10/10 00:57:47;;;;;;;0.00;0.00;;;;;;;10.04;100.00;98715.66;4907847;29;20651;-62
2022/10/10 01:00:14;;;;;;;0.00;0.00;;;;;;;10.03;100.00;98703.59;4896744;29;20235;-62
2022/10/10 01:02:41;;;;;;;0.00;0.00;;;;;;;10.00;100.00;98701.25;4905680;29;20230;-62
2022/10/10 01:05:09;;;;;;;0.00;0.00;;;;;;;10.03;100.00;98708.81;4910710;29;20224;-62
2022/10/10 01:07:35;;;;;;;0.00;0.00;;;;;;;10.02;100.00;98709.75;4907303;29;20249;-62
2022/10/10 01:10:08;;;;;;;0.00;0.00;;;;;;;9.95;100.00;98706.09;4913761;29;20332;-62
2022/10/10 01:12:48;;;;;;;0.00;0.00;;;;;;;9.90;100.00;98702.13;4903514;29;20606;-62
2022/10/10 01:15:25;;;;;;;0.00;0.00;;;;;;;9.93;100.00;98711.47;4901567;29;20233;-62
2022/10/10 01:18:02;;;;;;;0.00;0.00;;;;;;;9.85;100.00;98700.94;4898447;29;20746;-62
2022/10/10 01:20:56;;;;;;;0.00;0.00;;;;;;;9.76;100.00;98710.44;4913452;29;20292;-62
2022/10/10 01:24:01;;;;;;;0.00;0.00;;;;;;;9.70;100.00;98713.59;4882284;29;20297;-62
2022/10/10 01:26:55;;;;;;;0.00;0.00;;;;;;;9.62;100.00;98706.50;4898805;29;20235;-62
2022/10/10 01:29:30;;;;;;;0.00;0.00;;;;;;;9.52;100.00;98711.75;4903344;29;20244;-62
2022/10/10 01:32:04;;;;;;;0.00;0.00;;;;;;;9.43;100.00;98712.63;4905595;29;20244;-62
2022/10/10 01:34:38;;;;;;;0.00;0.00;;;;;;;9.35;100.00;98715.91;4907986;29;20237;-62
2022/10/10 01:37:34;;;;;;;0.00;0.00;;;;;;;9.30;100.00;98715.50;4910381;29;20252;-62
2022/10/10 01:40:33;;;;;;;0.00;0.00;;;;;;;9.21;100.00;98706.75;4905538;29;20678;-62
2022/10/10 01:43:08;;;;;;;0.00;0.00;;;;;;;9.14;100.00;98714.28;4915641;29;20293;-62
2022/10/10 01:45:36;;;;;;;0.00;0.00;;;;;;;9.13;100.00;98709.25;4902146;29;20230;-62
2022/10/10 01:48:05;;;;;;;0.00;0.00;;;;;;;9.05;100.00;98716.91;4888917;29;20258;-62
2022/10/10 01:50:35;;;;;;;0.00;0.00;;;;;;;9.00;100.00;98709.53;4892307;29;20320;-62
2022/10/10 01:53:10;;;;;;;0.00;0.00;;;;;;;8.98;100.00;98704.47;4910247;29;20281;-62
2022/10/10 01:55:52;;;;;;;0.00;0.00;;;;;;;8.96;100.00;98708.19;4910162;29;20780;-62
2022/10/10 01:58:59;;;;;;;0.00;0.00;;;;;;;8.88;100.00;98695.81;4892060;29;20248;-62
2022/10/10 02:01:35;;;;;;;0.00;0.00;;;;;;;8.80;100.00;98693.94;4904911;29;20228;-62
2022/10/10 02:04:15;;;;;;;0.00;0.00;;;;;;;8.78;100.00;98689.81;4913733;29;20226;-62
2022/10/10 02:06:46;;;;;;;0.00;0.00;;;;;;;8.74;100.00;98691.03;4911057;29;20786;-62
2022/10/10 02:09:19;;;;;;;0.00;0.00;;;;;;;8.76;100.00;98687.34;4907527;29;20255;-62
2022/10/10 02:11:46;;;;;;;0.00;0.00;;;;;;;8.81;100.00;98690.38;4908135;29;20250;-62
2022/10/10 02:14:17;;;;;;;0.00;0.00;;;;;;;8.79;100.00;98681.03;4906836;29;20225;-62
2022/10/10 02:16:49;;;;;;;0.00;0.00;;;;;;;8.73;100.00;98686.78;4907279;29;20238;-62
2022/10/10 02:19:19;;;;;;;0.00;0.00;;;;;;;8.73;100.00;98685.03;4915471;29;20284;-62
2022/10/10 02:21:48;;;;;;;0.00;0.00;;;;;;;8.73;100.00;98686.78;4906081;29;20241;-62
2022/10/10 02:24:15;;;;;;;0.00;0.00;;;;;;;8.71;100.00;98677.34;4903994;29;20288;-62
2022/10/10 02:26:46;;;;;;;0.00;0.00;;;;;;;8.69;100.00;98676.66;4907550;29;20242;-62
2022/10/10 02:29:18;;;;;;;0.00;0.00;;;;;;;8.73;100.00;98668.56;4912580;29;20237;-62
2022/10/10 02:31:53;;;;;;;0.00;0.00;;;;;;;8.80;100.00;98674.88;4912257;29;20247;-62
2022/10/10 02:34:24;;;;;;;0.00;0.00;;;;;;;8.75;100.00;98685.72;4892439;29;20296;-62
2022/10/10 02:36:55;;;;;;;0.00;0.00;;;;;;;8.83;100.00;98679.81;4911398;29;20245;-62
2022/10/10 02:39:26;;;;;;;6.57;3.83;;;;;;;8.74;100.00;98678.03;4907535;29;20645;-62
2022/10/10 02:41:53;;;;;;;7.60;3.67;;;;;;;8.73;100.00;98676.38;4912215;29;20289;-62
2022/10/10 02:44:21;;;;;;;5.63;3.90;;;;;;;8.75;100.00;98675.31;4906304;29;20244;-62
2022/10/10 02:46:49;;;;;;;6.87;3.63;;;;;;;8.78;100.00;98676.78;4914516;29;20240;-62
2022/10/10 02:49:23;;;;;;;5.17;3.80;;;;;;;8.79;100.00;98678.44;4915971;29;20241;-62
2022/10/10 02:51:50;;;;;;;11.27;3.90;;;;;;;8.88;100.00;98679.41;4896784;29;20695;-62
2022/10/10 02:54:17;;;;;;;7.03;3.60;;;;;;;8.85;100.00;98678.72;4917295;29;20317;-62
2022/10/10 02:56:44;;;;;;;6.23;3.87;;;;;;;8.83;100.00;98683.25;4902463;29;20284;-62
2022/10/10 02:59:10;;;;;;;7.27;3.80;;;;;;;8.84;100.00;98684.88;4915314;29;20288;-62
2022/10/10 22:15:51;;;;;;;0.00;0.00;;;;;;;14.52;100.00;99207.13;5587586;23;20284;-64
2022/10/10 22:18:18;;;;;;;0.00;0.00;;;;;;;14.51;100.00;99204.66;4852709;29;20239;-64
2022/10/10 22:20:45;;;;;;;0.00;0.00;;;;;;;14.46;100.00;99198.09;4845070;29;20242;-64
2022/10/10 22:23:11;;;;;;;0.00;0.00;;;;;;;14.47;100.00;99198.91;4852912;29;20244;-64
2022/10/10 22:25:43;;;;;;;0.00;0.00;;;;;;;14.47;100.00;99196.28;4847038;29;20239;-61
2022/10/10 22:28:10;;;;;;;0.00;0.00;;;;;;;14.47;100.00;99193.66;4841935;29;20734;-61
2022/10/10 22:30:36;;;;;;;0.00;0.00;;;;;;;14.47;100.00;99194.47;4835833;29;20338;-61
2022/10/10 22:33:04;;;;;;;0.00;0.00;;;;;;;14.47;100.00;99198.91;4840777;29;20243;-61
2022/10/10 22:35:31;;;;;;;0.00;0.00;;;;;;;14.47;100.00;99199.72;4839794;29;20305;-61
2022/10/10 22:37:58;;;;;;;0.00;0.00;;;;;;;14.45;100.00;99196.44;4839263;29;20243;-61
2022/10/10 22:40:24;;;;;;;0.00;0.00;;;;;;;14.45;100.00;99206.16;4838520;29;20303;-61
2022/10/10 22:42:51;;;;;;;0.00;0.00;;;;;;;14.42;100.00;99201.22;4844711;29;20789;-61
2022/10/10 22:45:18;;;;;;;0.00;0.00;;;;;;;14.42;100.00;99198.59;4841862;29;20736;-61
2022/10/10 22:47:45;;;;;;;0.00;0.00;;;;;;;14.45;100.00;99196.44;4838994;29;20299;-61
2022/10/10 22:50:13;;;;;;;0.00;0.00;;;;;;;14.40;100.00;99200.56;4842693;29;20230;-61
2022/10/10 22:52:40;;;;;;;0.00;0.00;;;;;;;14.40;100.00;99205.81;4839354;29;20249;-61
2022/10/10 22:55:08;;;;;;;0.00;0.00;;;;;;;14.34;100.00;99201.19;4838705;29;20253;-61
2022/10/10 22:57:35;;;;;;;0.00;0.00;;;;;;;14.31;100.00;99202.31;4837294;29;20238;-61
2022/10/10 23:00:03;;;;;;;0.00;0.00;;;;;;;14.29;100.00;99206.94;4839202;29;20282;-61
2022/10/10 23:02:29;;;;;;;0.00;0.00;;;;;;;14.26;100.00;99204.63;4839529;29;20704;-61
2022/10/10 23:04:58;;;;;;;0.00;0.00;;;;;;;14.30;100.00;99204.13;4846359;29;20587;-61
2022/10/10 23:07:26;;;;;;;0.00;0.00;;;;;;;14.26;100.00;99205.44;4840905;29;20412;-61
2022/10/10 23:09:52;;;;;;;0.00;0.00;;;;;;;14.18;100.00;99202.78;4846993;29;20298;-61
2022/10/10 23:12:19;;;;;;;0.00;0.00;;;;;;;14.16;100.00;99210.00;4844743;29;20230;-61
2022/10/10 23:14:46;;;;;;;0.00;0.00;;;;;;;14.16;100.00;99218.72;4838396;29;20312;-61
2022/10/10 23:17:12;;;;;;;0.00;0.00;;;;;;;14.15;100.00;99211.81;4834829;29;20234;-61
2022/10/10 23:19:39;;;;;;;0.00;0.00;;;;;;;14.12;100.00;99209.53;4845268;29;20240;-61
2022/10/10 23:22:06;;;;;;;0.00;0.00;;;;;;;14.14;100.00;99209.34;4843619;29;20613;-61
2022/10/10 23:24:36;;;;;;;0.00;0.00;;;;;;;14.14;100.00;99217.22;4840784;29;20235;-61
2022/10/10 23:27:03;;;;;;;0.00;0.00;;;;;;;14.13;100.00;99212.94;4848126;29;20796;-61
2022/10/10 23:29:29;;;;;;;0.00;0.00;;;;;;;14.12;100.00;99206.06;4840564;29;20237;-61
2022/10/10 23:31:56;;;;;;;0.00;0.00;;;;;;;14.14;100.00;99204.94;4844796;29;20650;-61
2022/10/10 23:34:22;;;;;;;0.00;0.00;;;;;;;14.15;100.00;99203.94;4843855;29;20243;-61
2022/10/10 23:36:49;;;;;;;0.00;0.00;;;;;;;14.13;100.00;99207.69;4842157;29;20608;-61
2022/10/10 23:39:15;;;;;;;0.00;0.00;;;;;;;14.11;100.00;99207.88;4839754;29;20247;-61
2022/10/10 23:41:43;;;;;;;0.00;0.00;;;;;;;14.11;100.00;99207.03;4841367;29;20238;-61
2022/10/10 23:44:10;;;;;;;0.00;0.00;;;;;;;14.10;100.00;99214.09;4838706;29;20239;-61
2022/10/10 23:46:36;;;;;;;0.00;0.00;;;;;;;14.12;100.00;99206.06;4841521;29;20231;-61
2022/10/10 23:49:03;;;;;;;0.00;0.00;;;;;;;14.11;100.00;99209.66;4846927;29;20260;-61
2022/10/10 23:51:29;;;;;;;0.00;0.00;;;;;;;14.08;100.00;99204.72;4844466;29;20241;-61
2022/10/10 23:53:56;;;;;;;0.00;0.00;;;;;;;14.04;100.00;99209.50;4849493;29;20337;-61
2022/10/10 23:56:23;;;;;;;0.00;0.00;;;;;;;14.03;100.00;99208.66;4846181;29;20278;-61
2022/10/10 23:58:51;;;;;;;0.00;0.00;;;;;;;14.02;100.00;99212.25;4844180;29;20838;-61
